Matlock, Iowa
Current Conditions -  °F | °C
As of 4:55 PM on Wednesday 26 Nov 2014 (Local Time) from KSHL Reporting Station
Overcast Overcast  
Wind Chill:   Ceiling: 1200
Heat Index: 18°   Visibility: 8mi
Dew Point: 14°   Wind: 18mph
Humidity: 86%   Direction: 340°NNW
Pressure: 30.29"   Gusts: 24mph
Location:  43.24°N, 95.94°W
Report Text: KSHL 262255Z AUTO 34016G21KT 8SM FEW007 BKN012 OVC019 M08/M10 A3029 RMK AO2
Loading
Personal Weather Stations






























Interactive Weather Map New forecast layout! Learn more

10-Day Weather Forecast

Advertisements
Track Severe Weather on mobile